Time;durP1;ratioP1;P1;durP2;ratioP2;P2;SDS_P1;SDS_P2;PMS_P1;PMS_P2;Temp;Humidity;BMP_temperature;BMP_pressure;BME280_temperature;BME280_humidity;BME280_pressure;Samples;Min_cycle;Max_cycle;Signal;HPM_P1;HPM_P2
2023/01/31 00:01:05;;;;;;;26.52;10.85;;;5.10;99.90;;;;;;6301794;22;20321;-84
2023/01/31 00:03:31;;;;;;;21.63;10.68;;;5.20;99.90;;;;;;6302169;22;20006;-85
2023/01/31 00:05:57;;;;;;;20.77;9.20;;;5.20;99.90;;;;;;6301641;22;19999;-84
2023/01/31 00:08:22;;;;;;;22.80;8.40;;;5.30;99.90;;;;;;6299588;22;20114;-83
2023/01/31 00:10:48;;;;;;;22.15;10.02;;;5.10;99.90;;;;;;6301203;22;20309;-84
2023/01/31 00:13:13;;;;;;;28.55;11.00;;;5.00;99.90;;;;;;6301522;22;19999;-84
2023/01/31 00:15:39;;;;;;;22.33;9.57;;;5.00;99.90;;;;;;6300226;22;20089;-83
2023/01/31 00:18:05;;;;;;;20.75;8.60;;;5.00;99.90;;;;;;6300375;22;19999;-84
2023/01/31 00:20:30;;;;;;;20.75;7.35;;;5.00;99.90;;;;;;6302208;22;20070;-83
2023/01/31 00:22:57;;;;;;;18.17;5.97;;;4.90;99.90;;;;;;6299032;22;20082;-83
2023/01/31 00:25:22;;;;;;;19.65;6.65;;;4.80;99.90;;;;;;6299652;22;20029;-84
2023/01/31 00:27:48;;;;;;;14.57;6.43;;;4.80;99.90;;;;;;6300921;22;20459;-84
2023/01/31 00:30:14;;;;;;;16.30;6.20;;;4.60;99.90;;;;;;6301257;22;20006;-84
2023/01/31 00:32:39;;;;;;;15.13;5.85;;;4.50;99.90;;;;;;6300972;22;20386;-83
2023/01/31 00:35:05;;;;;;;11.27;4.43;;;4.50;99.90;;;;;;6300444;22;20387;-82
2023/01/31 00:37:31;;;;;;;8.77;4.40;;;4.60;99.90;;;;;;6302040;22;20026;-85
2023/01/31 00:39:56;;;;;;;10.40;4.38;;;4.50;99.90;;;;;;6301145;22;20018;-83
2023/01/31 00:42:22;;;;;;;8.95;4.80;;;4.60;99.90;;;;;;6300963;22;20074;-82
2023/01/31 00:44:47;;;;;;;14.80;4.63;;;4.60;99.90;;;;;;6301230;22;20313;-84
2023/01/31 00:47:13;;;;;;;11.45;4.93;;;4.60;99.90;;;;;;6301118;22;20038;-82
2023/01/31 00:49:38;;;;;;;16.15;6.13;;;4.60;99.90;;;;;;6299336;22;19999;-82
2023/01/31 00:52:04;;;;;;;15.85;6.18;;;4.50;99.90;;;;;;6301614;22;20496;-83
2023/01/31 00:54:30;;;;;;;21.65;9.13;;;4.60;99.90;;;;;;6301424;22;20003;-84
2023/01/31 00:56:55;;;;;;;19.65;8.27;;;4.80;99.90;;;;;;6299074;22;20031;-82
2023/01/31 00:59:21;;;;;;;24.15;9.77;;;4.90;99.90;;;;;;6301229;22;20317;-84
2023/01/31 01:01:46;;;;;;;34.88;13.20;;;4.90;99.90;;;;;;6301098;22;20010;-83
2023/01/31 01:04:12;;;;;;;24.35;9.52;;;5.00;99.90;;;;;;6299389;22;20086;-82
2023/01/31 01:06:40;;;;;;;23.17;10.23;;;5.10;99.90;;;;;;6298155;22;20054;-83
2023/01/31 01:09:06;;;;;;;21.25;8.48;;;5.20;99.90;;;;;;6301199;22;19999;-82
2023/01/31 01:11:32;;;;;;;20.05;8.18;;;5.20;99.90;;;;;;6302455;22;20007;-84
2023/01/31 01:13:59;;;;;;;22.50;8.88;;;5.30;99.90;;;;;;6300061;22;20035;-83
2023/01/31 01:16:34;;;;;;;27.17;9.98;;;5.30;99.90;;;;;;6299921;22;20322;-84
2023/01/31 01:19:04;;;;;;;32.15;11.13;;;5.40;99.90;;;;;;6300060;22;20391;-84
2023/01/31 01:21:30;;;;;;;22.00;10.07;;;5.50;99.90;;;;;;6301967;22;19996;-82
2023/01/31 01:23:59;;;;;;;20.65;9.15;;;5.50;99.90;;;;;;6300711;22;20015;-84
2023/01/31 01:26:27;;;;;;;22.63;8.50;;;5.60;99.90;;;;;;6299394;22;19999;-84
2023/01/31 01:28:53;;;;;;;18.67;8.80;;;5.60;99.90;;;;;;6299798;22;20074;-84
2023/01/31 01:31:20;;;;;;;23.58;8.65;;;5.50;99.90;;;;;;6299112;22;20003;-84
2023/01/31 01:33:47;;;;;;;22.38;9.57;;;5.50;99.90;;;;;;6300594;22;20000;-83
2023/01/31 01:36:16;;;;;;;28.17;10.52;;;5.50;99.90;;;;;;6299467;22;20011;-82
2023/01/31 01:38:42;;;;;;;;;;;5.40;99.90;;;;;;6301003;22;20400;-82
2023/01/31 01:41:08;;;;;;;18.90;6.93;;;5.50;99.90;;;;;;6299359;22;19953;-82
2023/01/31 01:43:56;;;;;;;22.08;6.55;;;5.50;99.90;;;;;;6301123;22;19999;-84
2023/01/31 01:46:39;;;;;;;16.30;6.07;;;5.50;99.90;;;;;;6301352;22;20006;-82
2023/01/31 01:49:13;;;;;;;17.73;6.50;;;5.50;99.90;;;;;;6301629;22;20321;-84
2023/01/31 01:51:41;;;;;;;19.02;7.50;;;5.40;99.90;;;;;;6299711;22;20000;-83
2023/01/31 01:54:16;;;;;;;16.37;5.50;;;5.40;99.90;;;;;;6300897;22;20014;-82
2023/01/31 01:56:44;;;;;;;16.52;5.55;;;5.60;99.90;;;;;;6303359;22;20011;-82
2023/01/31 01:59:22;;;;;;;10.88;4.60;;;5.60;99.90;;;;;;6302851;22;20010;-82
2023/01/31 02:01:49;;;;;;;16.63;5.30;;;5.50;99.90;;;;;;6302548;22;19999;-84
2023/01/31 02:04:19;;;;;;;13.60;4.80;;;5.60;99.90;;;;;;6302356;22;20030;-84
2023/01/31 02:06:45;;;;;;;12.10;4.72;;;5.70;99.90;;;;;;6302019;22;20428;-84
2023/01/31 02:09:34;;;;;;;9.32;4.53;;;5.70;99.90;;;;;;6302916;22;20003;-82
2023/01/31 02:12:00;;;;;;;12.35;4.20;;;5.70;99.90;;;;;;6290415;22;20013;-85
2023/01/31 02:14:26;;;;;;;14.63;4.25;;;5.70;99.90;;;;;;6300739;22;20082;-83
2023/01/31 02:16:51;;;;;;;15.15;4.28;;;5.60;99.90;;;;;;6302403;22;20007;-84
2023/01/31 02:19:22;;;;;;;16.38;4.55;;;5.70;99.90;;;;;;6302643;22;20504;-84
2023/01/31 02:22:07;;;;;;;12.65;4.25;;;5.60;99.90;;;;;;6302711;22;20027;-82
2023/01/31 02:24:54;;;;;;;14.15;4.32;;;5.60;99.90;;;;;;6303801;22;20074;-83
2023/01/31 02:27:31;;;;;;;12.40;4.03;;;5.60;99.90;;;;;;6300695;22;20012;-84
2023/01/31 02:30:15;;;;;;;21.30;4.22;;;5.60;99.90;;;;;;6300294;22;20034;-83
2023/01/31 02:32:46;;;;;;;10.82;3.53;;;5.70;99.90;;;;;;6302333;22;19999;-82
2023/01/31 02:35:29;;;;;;;13.68;3.75;;;5.70;99.90;;;;;;6302011;22;20066;-84
2023/01/31 02:38:08;;;;;;;11.35;3.50;;;5.70;99.90;;;;;;6300048;22;20004;-84
2023/01/31 02:40:42;;;;;;;18.92;3.95;;;5.70;99.90;;;;;;6300809;22;20428;-82
2023/01/31 02:44:57;;;;;;;19.95;5.93;;;5.60;99.90;;;;;;6300776;22;20022;-82
2023/01/31 02:46:33;;;;;;;15.13;4.93;;;5.50;99.90;;;;;;6301877;22;20463;-84
2023/01/31 02:49:09;;;;;;;14.77;4.90;;;5.70;99.90;;;;;;6300309;22;20248;-84
2023/01/31 02:51:41;;;;;;;16.52;5.05;;;5.80;99.90;;;;;;6301263;22;20309;-83
2023/01/31 02:54:22;;;;;;;13.85;4.13;;;5.80;99.90;;;;;;6302243;22;20084;-82
2023/01/31 02:56:50;;;;;;;15.88;4.43;;;5.80;99.90;;;;;;6302242;22;20010;-83
2023/01/31 02:59:25;;;;;;;12.82;3.75;;;5.90;99.90;;;;;;6300931;22;20014;-82
2023/01/31 03:02:01;;;;;;;13.20;3.67;;;5.90;99.90;;;;;;6302019;22;20003;-84
2023/01/31 03:04:31;;;;;;;13.95;4.10;;;5.90;99.90;;;;;;6302122;22;20004;-84
2023/01/31 03:07:02;;;;;;;9.93;3.33;;;5.80;99.90;;;;;;6301348;22;20384;-83
2023/01/31 03:09:47;;;;;;;15.07;4.55;;;5.80;99.90;;;;;;6301412;22;20007;-84
2023/01/31 03:12:25;;;;;;;14.70;4.68;;;5.60;99.90;;;;;;6301942;22;19999;-83
2023/01/31 03:15:05;;;;;;;13.67;3.97;;;5.70;99.90;;;;;;6301726;22;20066;-84
2023/01/31 03:17:50;;;;;;;12.13;3.70;;;5.70;99.90;;;;;;6301462;22;20006;-84
2023/01/31 03:20:42;;;;;;;10.55;3.65;;;5.80;99.90;;;;;;6302669;22;20075;-82
2023/01/31 03:23:16;;;;;;;16.75;3.30;;;5.80;99.90;;;;;;6301925;22;20497;-84
2023/01/31 03:25:43;;;;;;;12.32;4.30;;;5.80;99.90;;;;;;6300281;22;20078;-83
2023/01/31 03:28:15;;;;;;;14.25;4.03;;;5.60;99.90;;;;;;6300847;22;20021;-82
2023/01/31 03:30:52;;;;;;;15.05;3.83;;;5.70;99.90;;;;;;6300039;22;20082;-82
2023/01/31 03:33:28;;;;;;;14.40;3.75;;;5.80;99.90;;;;;;6300724;22;20007;-84
2023/01/31 03:36:18;;;;;;;11.98;3.58;;;5.80;99.90;;;;;;6299587;22;20004;-84
2023/01/31 03:38:56;;;;;;;11.82;3.45;;;5.70;99.90;;;;;;6299497;22;20027;-84
2023/01/31 03:41:46;;;;;;;13.57;3.70;;;5.80;99.90;;;;;;6303196;22;20046;-83
2023/01/31 03:44:38;;;;;;;12.00;3.53;;;5.80;99.90;;;;;;6302068;22;20340;-83
2023/01/31 03:47:24;;;;;;;12.88;3.22;;;5.80;99.90;;;;;;6286254;22;20007;-83
2023/01/31 03:49:53;;;;;;;11.45;3.88;;;5.80;99.90;;;;;;6301249;22;20003;-84
2023/01/31 03:52:25;;;;;;;18.30;4.63;;;5.90;99.90;;;;;;6301702;22;20048;-83
2023/01/31 03:54:59;;;;;;;13.43;3.80;;;5.90;99.90;;;;;;6301317;22;20007;-83
2023/01/31 03:57:33;;;;;;;8.48;3.03;;;5.90;99.90;;;;;;6301397;22;20006;-83
2023/01/31 04:00:01;;;;;;;15.32;3.42;;;6.00;99.90;;;;;;6299471;22;20003;-83
2023/01/31 04:02:35;;;;;;;11.20;3.15;;;6.00;99.90;;;;;;6300068;22;20092;-85
2023/01/31 04:05:13;;;;;;;8.52;3.63;;;6.00;99.90;;;;;;6300915;22;20441;-83
2023/01/31 04:07:39;;;;;;;12.95;3.42;;;6.00;99.90;;;;;;6300168;22;20069;-82
2023/01/31 04:10:11;;;;;;;12.45;3.50;;;6.00;99.90;;;;;;6301762;22;20026;-82
2023/01/31 04:12:37;;;;;;;12.80;3.22;;;6.00;99.90;;;;;;6298968;22;20030;-82
2023/01/31 04:15:04;;;;;;;11.30;3.13;;;5.90;99.90;;;;;;6301095;22;20007;-82
2023/01/31 04:17:30;;;;;;;17.25;5.40;;;5.80;99.90;;;;;;6299601;22;20082;-84
2023/01/31 04:19:56;;;;;;;14.52;3.50;;;5.80;99.90;;;;;;6301367;22;20372;-83
2023/01/31 04:22:21;;;;;;;17.67;3.33;;;5.90;99.90;;;;;;6301270;22;20010;-84
2023/01/31 04:24:47;;;;;;;9.63;3.75;;;5.80;99.90;;;;;;6299263;22;20007;-84
2023/01/31 04:27:12;;;;;;;17.70;4.05;;;5.80;99.90;;;;;;6301437;22;20341;-83
2023/01/31 04:29:38;;;;;;;12.93;4.05;;;5.70;99.90;;;;;;6302792;22;20023;-82
2023/01/31 04:32:04;;;;;;;12.65;3.15;;;5.80;99.90;;;;;;6300530;22;20434;-84
2023/01/31 04:34:29;;;;;;;15.95;4.03;;;5.90;99.90;;;;;;6299402;22;20031;-82
2023/01/31 04:36:55;;;;;;;15.02;3.25;;;5.90;99.90;;;;;;6298978;22;20006;-82
2023/01/31 04:39:21;;;;;;;14.43;3.45;;;5.90;99.90;;;;;;6301266;22;20007;-82
2023/01/31 04:41:47;;;;;;;11.43;3.13;;;5.80;99.90;;;;;;6300568;22;20140;-82
2023/01/31 04:44:13;;;;;;;14.88;3.20;;;5.80;99.90;;;;;;6301462;22;20007;-85
2023/01/31 04:46:38;;;;;;;13.32;3.10;;;5.90;99.90;;;;;;6299981;22;20060;-87
2023/01/31 04:49:04;;;;;;;14.63;3.17;;;5.80;99.90;;;;;;6301624;22;20074;-87
2023/01/31 04:51:30;;;;;;;12.52;3.25;;;5.90;99.90;;;;;;6300834;22;20494;-87
2023/01/31 04:53:55;;;;;;;13.82;3.30;;;5.90;99.90;;;;;;6300648;22;20007;-85
2023/01/31 04:56:21;;;;;;;16.88;3.03;;;6.00;99.90;;;;;;6300820;22;20027;-89
2023/01/31 04:58:47;;;;;;;12.88;3.05;;;6.00;99.90;;;;;;6300510;22;20007;-89
2023/01/31 05:01:13;;;;;;;11.88;2.85;;;6.00;99.90;;;;;;6303214;22;20049;-83
2023/01/31 05:03:39;;;;;;;13.60;3.25;;;6.00;99.90;;;;;;6301639;22;20014;-89
2023/01/31 05:06:05;;;;;;;11.57;3.53;;;6.10;99.90;;;;;;6300982;22;20086;-91
2023/01/31 05:08:30;;;;;;;17.33;3.50;;;6.10;99.90;;;;;;6302005;22;20018;-91
2023/01/31 05:11:01;;;;;;;11.85;2.92;;;6.00;99.90;;;;;;6303066;22;19999;-91
2023/01/31 05:13:29;;;;;;;14.93;3.17;;;6.10;99.90;;;;;;6301834;22;20435;-90
2023/01/31 05:15:56;;;;;;;11.20;2.92;;;6.10;99.90;;;;;;6301507;22;20053;-89
2023/01/31 05:18:28;;;;;;;9.30;2.67;;;6.20;99.90;;;;;;6296061;22;20056;-91
2023/01/31 05:20:54;;;;;;;12.13;3.25;;;6.30;99.90;;;;;;6299735;22;20242;-86
2023/01/31 05:23:43;;;;;;;14.75;3.75;;;6.10;99.90;;;;;;6301543;22;20165;-94
2023/01/31 05:26:08;;;;;;;16.33;3.75;;;6.10;99.90;;;;;;6289013;22;20031;-88
2023/01/31 05:28:34;;;;;;;15.48;3.20;;;6.20;99.90;;;;;;6300916;22;20018;-87
2023/01/31 05:31:04;;;;;;;16.35;3.08;;;6.20;99.90;;;;;;6305196;22;20000;-89
2023/01/31 05:33:30;;;;;;;16.05;3.42;;;6.30;99.90;;;;;;6303201;22;20527;-88
2023/01/31 05:35:57;;;;;;;12.15;2.97;;;6.20;99.90;;;;;;6304488;22;19999;-87
2023/01/31 05:38:22;;;;;;;15.75;3.35;;;6.30;99.90;;;;;;6303461;22;20056;-87
2023/01/31 05:40:51;;;;;;;14.00;3.00;;;6.20;99.90;;;;;;6303644;22;20011;-86
2023/01/31 05:43:17;;;;;;;14.85;2.90;;;6.10;99.90;;;;;;6303719;22;20011;-88
2023/01/31 05:45:51;;;;;;;17.15;3.13;;;6.10;99.90;;;;;;6305363;22;20086;-89
2023/01/31 05:48:17;;;;;;;14.02;3.20;;;6.10;99.90;;;;;;6303472;22;20025;-89
2023/01/31 05:50:43;;;;;;;14.30;2.78;;;6.10;99.90;;;;;;6305877;22;20019;-87
2023/01/31 05:53:08;;;;;;;16.83;3.03;;;6.20;99.90;;;;;;6304077;22;20007;-86
2023/01/31 05:55:34;;;;;;;15.18;3.50;;;6.20;99.90;;;;;;6304830;22;19996;-88
2023/01/31 05:57:59;;;;;;;10.07;2.78;;;6.20;99.90;;;;;;6304792;22;19996;-88
2023/01/31 06:00:25;;;;;;;13.80;3.17;;;6.20;99.90;;;;;;6305768;22;20006;-90
2023/01/31 06:02:51;;;;;;;15.38;2.95;;;6.20;99.90;;;;;;6304792;22;20416;-89
2023/01/31 06:05:17;;;;;;;13.98;3.13;;;6.20;99.90;;;;;;6304630;22;20041;-86
2023/01/31 06:07:43;;;;;;;18.52;3.60;;;6.20;99.90;;;;;;6305591;22;20057;-89
2023/01/31 06:10:10;;;;;;;14.38;2.85;;;6.20;99.90;;;;;;6303219;22;20000;-88
2023/01/31 06:12:36;;;;;;;18.20;3.97;;;6.20;99.90;;;;;;6304945;22;20003;-89
2023/01/31 06:15:02;;;;;;;13.05;3.30;;;6.20;99.90;;;;;;6304228;22;20082;-90
2023/01/31 06:17:27;;;;;;;19.70;3.53;;;6.20;99.90;;;;;;6303794;22;20011;-87
2023/01/31 06:19:53;;;;;;;14.95;3.30;;;6.30;99.90;;;;;;6305271;22;20062;-88
2023/01/31 06:22:19;;;;;;;19.45;3.45;;;6.20;99.90;;;;;;6304665;22;20003;-85
2023/01/31 06:24:45;;;;;;;10.52;2.63;;;6.20;99.90;;;;;;6304886;22;20050;-85
2023/01/31 06:27:11;;;;;;;16.08;3.05;;;6.20;99.90;;;;;;6305261;22;20428;-86
2023/01/31 06:29:36;;;;;;;13.68;3.00;;;6.20;99.90;;;;;;6304640;22;20003;-84
2023/01/31 06:32:02;;;;;;;14.50;3.20;;;6.20;99.90;;;;;;6302786;22;20038;-85
2023/01/31 06:34:28;;;;;;;12.38;2.92;;;6.20;99.90;;;;;;6302426;22;20492;-88
2023/01/31 06:36:53;;;;;;;17.63;3.00;;;6.30;99.90;;;;;;6302447;22;20007;-89
2023/01/31 06:39:19;;;;;;;11.95;2.80;;;6.20;99.90;;;;;;6302236;22;20013;-85
2023/01/31 06:41:44;;;;;;;15.30;3.08;;;6.20;99.90;;;;;;6303122;22;20049;-85
2023/01/31 06:44:10;;;;;;;13.82;2.88;;;6.20;99.90;;;;;;6303910;22;20001;-85
2023/01/31 06:46:36;;;;;;;16.02;3.60;;;6.30;99.90;;;;;;6303862;22;20332;-88
2023/01/31 06:49:02;;;;;;;16.15;3.38;;;6.20;99.90;;;;;;6302759;22;20332;-89
2023/01/31 06:51:27;;;;;;;10.15;3.15;;;6.20;99.90;;;;;;6303847;22;19999;-87
2023/01/31 06:53:55;;;;;;;18.55;2.92;;;6.20;99.90;;;;;;6303543;22;19999;-89
2023/01/31 06:56:21;;;;;;;12.50;3.33;;;6.30;99.90;;;;;;6302103;22;20489;-86
2023/01/31 06:58:47;;;;;;;17.17;3.08;;;6.20;99.90;;;;;;6303457;22;20454;-84
2023/01/31 07:01:13;;;;;;;11.98;3.22;;;6.20;99.90;;;;;;6305031;22;20067;-89
2023/01/31 07:03:40;;;;;;;16.15;3.25;;;6.20;99.90;;;;;;6302788;22;20018;-90
2023/01/31 07:06:06;;;;;;;13.00;3.17;;;6.20;99.90;;;;;;6304150;22;20399;-89
2023/01/31 07:08:33;;;;;;;15.13;3.78;;;6.20;99.90;;;;;;6304054;22;20015;-87
2023/01/31 07:11:00;;;;;;;17.55;3.60;;;6.20;99.90;;;;;;6302120;22;20340;-85
2023/01/31 07:13:27;;;;;;;16.92;3.33;;;6.20;99.90;;;;;;6303783;22;20003;-90
2023/01/31 07:15:53;;;;;;;15.77;3.05;;;6.20;99.90;;;;;;6303575;22;20006;-85
2023/01/31 07:18:19;;;;;;;15.75;3.17;;;6.30;99.90;;;;;;6301875;22;20004;-85
2023/01/31 07:20:44;;;;;;;15.43;3.15;;;6.20;99.90;;;;;;6304333;22;19995;-85
2023/01/31 07:23:10;;;;;;;13.90;2.95;;;6.30;99.90;;;;;;6301928;22;20081;-84
2023/01/31 07:25:36;;;;;;;16.50;3.65;;;6.20;99.90;;;;;;6303079;22;19999;-85
2023/01/31 07:28:02;;;;;;;11.48;3.03;;;6.30;99.90;;;;;;6303646;22;20007;-91
2023/01/31 07:30:28;;;;;;;14.75;2.88;;;6.30;99.90;;;;;;6302185;22;20004;-85
2023/01/31 07:32:53;;;;;;;14.02;3.35;;;6.20;99.90;;;;;;6301931;22;20014;-85
2023/01/31 07:35:20;;;;;;;12.50;2.85;;;6.30;99.90;;;;;;6303554;22;19999;-85
2023/01/31 07:37:46;;;;;;;16.85;3.33;;;6.30;99.90;;;;;;6304678;22;19999;-86
2023/01/31 07:40:14;;;;;;;20.92;3.42;;;6.30;99.90;;;;;;6304035;22;20034;-86
2023/01/31 07:42:40;;;;;;;19.13;3.03;;;6.30;99.90;;;;;;6302261;22;20528;-86
2023/01/31 07:45:07;;;;;;;14.02;3.05;;;6.30;99.90;;;;;;6302336;22;20007;-90
2023/01/31 07:47:33;;;;;;;18.70;3.05;;;6.30;99.90;;;;;;6302258;22;20007;-89
2023/01/31 07:49:58;;;;;;;12.63;2.80;;;6.30;99.90;;;;;;6302134;22;20003;-86
2023/01/31 07:52:24;;;;;;;17.52;3.03;;;6.30;99.90;;;;;;6301762;22;20424;-85
2023/01/31 07:54:50;;;;;;;19.33;3.95;;;6.30;99.90;;;;;;6303239;22;20003;-88
2023/01/31 07:57:16;;;;;;;17.02;3.40;;;6.30;99.90;;;;;;6303289;22;20412;-89
2023/01/31 07:59:43;;;;;;;12.82;3.05;;;6.30;99.90;;;;;;6303572;22;19999;-88
2023/01/31 08:04:58;;;;;;;14.65;3.30;;;6.30;99.90;;;;;;6302955;22;20386;-85
2023/01/31 08:07:25;;;;;;;22.17;4.07;;;6.30;99.90;;;;;;6302889;22;20003;-85
2023/01/31 08:09:51;;;;;;;13.73;4.00;;;6.40;99.90;;;;;;6303325;22;20003;-87
2023/01/31 08:12:17;;;;;;;13.18;4.78;;;6.50;99.90;;;;;;6302760;22;20090;-85
2023/01/31 08:14:43;;;;;;;17.40;5.63;;;6.50;99.90;;;;;;6301706;22;20003;-85
2023/01/31 08:17:09;;;;;;;25.02;5.18;;;6.50;99.90;;;;;;6301710;22;20042;-86
2023/01/31 08:19:35;;;;;;;17.63;4.55;;;6.50;99.90;;;;;;6301751;22;20432;-87
2023/01/31 08:22:01;;;;;;;15.75;4.10;;;6.50;99.90;;;;;;6303210;22;20003;-89
2023/01/31 08:24:27;;;;;;;13.23;3.47;;;6.60;99.90;;;;;;6303323;22;20074;-86
2023/01/31 08:26:53;;;;;;;19.98;3.92;;;6.60;99.90;;;;;;6303309;22;20133;-86
2023/01/31 08:29:18;;;;;;;11.15;3.58;;;6.60;99.90;;;;;;6304245;22;19996;-89
2023/01/31 08:31:44;;;;;;;19.23;4.15;;;6.60;99.90;;;;;;6303211;22;19999;-89
2023/01/31 08:34:10;;;;;;;16.02;3.90;;;6.70;99.90;;;;;;6301735;22;20086;-85
2023/01/31 08:36:36;;;;;;;19.05;3.58;;;6.60;99.90;;;;;;6302889;22;20007;-85
2023/01/31 08:39:03;;;;;;;20.92;3.50;;;6.60;99.90;;;;;;6302914;22;20042;-88
2023/01/31 08:41:30;;;;;;;18.90;3.78;;;6.70;99.90;;;;;;6302899;22;20011;-85
2023/01/31 08:43:56;;;;;;;19.08;3.40;;;6.70;99.90;;;;;;6302987;22;20006;-88
2023/01/31 08:46:28;;;;;;;20.30;4.35;;;6.80;99.90;;;;;;6303877;22;20432;-85
2023/01/31 08:48:54;;;;;;;15.85;3.40;;;6.70;99.90;;;;;;6303179;22;20073;-88
2023/01/31 08:51:20;;;;;;;20.02;4.30;;;6.80;99.90;;;;;;6304208;22;20003;-89
2023/01/31 08:53:46;;;;;;;12.40;3.50;;;6.90;99.90;;;;;;6305739;22;20000;-87
2023/01/31 08:56:13;;;;;;;17.20;3.72;;;6.80;99.90;;;;;;6305971;22;20002;-88
2023/01/31 08:58:41;;;;;;;18.27;4.05;;;6.90;99.90;;;;;;6302724;22;19999;-85
2023/01/31 09:01:12;;;;;;;16.30;3.67;;;6.90;99.90;;;;;;6302857;22;20375;-90
2023/01/31 09:03:39;;;;;;;14.13;3.70;;;6.90;99.90;;;;;;6302371;22;20078;-88
2023/01/31 09:06:07;;;;;;;20.88;4.55;;;6.90;99.90;;;;;;6305522;22;20305;-89
2023/01/31 09:08:33;;;;;;;25.50;5.45;;;7.00;99.90;;;;;;6305123;22;20034;-89
2023/01/31 09:10:59;;;;;;;20.48;4.00;;;7.00;99.90;;;;;;6305209;22;19999;-87
2023/01/31 09:13:26;;;;;;;13.57;3.17;;;7.00;99.90;;;;;;6305062;22;20006;-84
2023/01/31 09:16:18;;;;;;;15.00;3.75;;;7.00;99.90;;;;;;6305983;22;19995;-90
2023/01/31 09:18:43;;;;;;;15.07;3.25;;;7.10;99.90;;;;;;6298151;22;20082;-88
2023/01/31 09:21:21;;;;;;;18.65;4.22;;;7.10;99.90;;;;;;6303461;22;20380;-90
2023/01/31 09:23:47;;;;;;;15.20;3.70;;;7.20;99.90;;;;;;6303261;22;20053;-84
2023/01/31 09:26:14;;;;;;;15.48;3.30;;;7.20;99.90;;;;;;6304654;22;20022;-88
2023/01/31 09:28:44;;;;;;;16.27;3.55;;;7.20;99.90;;;;;;6304997;22;20007;-84
2023/01/31 09:31:16;;;;;;;15.07;4.30;;;7.10;99.90;;;;;;6303047;22;20029;-85
2023/01/31 09:33:42;;;;;;;15.65;3.85;;;7.30;99.90;;;;;;6302950;22;20003;-85
2023/01/31 09:36:11;;;;;;;17.58;4.28;;;7.30;99.90;;;;;;6305149;22;20046;-85
2023/01/31 09:38:37;;;;;;;22.88;4.55;;;7.30;99.90;;;;;;6302875;22;20003;-89
2023/01/31 09:41:09;;;;;;;14.57;3.50;;;7.30;99.90;;;;;;6304101;22;20042;-85
2023/01/31 09:43:41;;;;;;;13.90;3.70;;;7.30;99.90;;;;;;6304405;22;20007;-89
2023/01/31 09:46:14;;;;;;;17.23;4.03;;;7.40;99.90;;;;;;6302924;22;20003;-89
2023/01/31 09:48:44;;;;;;;11.60;3.78;;;7.30;99.90;;;;;;6302808;22;20011;-89
2023/01/31 09:51:11;;;;;;;18.83;4.10;;;7.40;99.90;;;;;;6302797;22;20449;-85
2023/01/31 09:53:40;;;;;;;20.83;4.03;;;7.50;99.90;;;;;;6303211;22;20007;-87
2023/01/31 09:56:08;;;;;;;19.33;3.30;;;7.60;99.90;;;;;;6304483;22;20348;-87
2023/01/31 09:58:49;;;;;;;16.13;3.70;;;7.70;99.90;;;;;;6303052;22;20379;-88
2023/01/31 10:01:28;;;;;;;14.70;3.70;;;7.80;99.90;;;;;;6303028;22;20082;-88
2023/01/31 10:04:01;;;;;;;19.98;3.45;;;7.80;99.90;;;;;;6303884;22;20007;-87
2023/01/31 10:06:39;;;;;;;18.58;3.40;;;7.80;99.90;;;;;;6305735;22;20049;-88
2023/01/31 10:09:34;;;;;;;16.20;3.80;;;7.80;99.90;;;;;;6304716;22;20033;-90
2023/01/31 10:12:29;;;;;;;14.23;3.15;;;7.90;99.90;;;;;;6303082;22;20290;-89
2023/01/31 10:15:02;;;;;;;15.45;3.70;;;7.90;99.90;;;;;;6303548;22;20010;-90
2023/01/31 10:17:34;;;;;;;19.33;3.53;;;7.90;99.90;;;;;;6303621;22;20003;-85
2023/01/31 10:20:17;;;;;;;18.02;3.50;;;7.90;99.90;;;;;;6304286;22;20003;-88
2023/01/31 10:22:59;;;;;;;17.02;3.88;;;7.90;99.90;;;;;;6304305;22;20041;-91
2023/01/31 10:25:44;;;;;;;15.75;3.00;;;8.00;99.90;;;;;;6305611;22;20003;-89
2023/01/31 10:28:19;;;;;;;12.50;2.70;;;8.00;99.90;;;;;;6302710;22;20021;-86
2023/01/31 10:30:54;;;;;;;15.88;3.38;;;8.00;99.90;;;;;;6303011;22;20023;-90
2023/01/31 10:33:34;;;;;;;12.75;2.80;;;8.10;99.90;;;;;;6302645;22;20007;-86
2023/01/31 10:36:04;;;;;;;18.75;3.53;;;8.20;99.90;;;;;;6302817;22;20462;-86
2023/01/31 10:38:41;;;;;;;17.70;3.30;;;8.20;99.90;;;;;;6302765;22;20436;-88
2023/01/31 10:41:20;;;;;;;24.40;3.53;;;8.30;99.90;;;;;;6304059;22;20007;-85
2023/01/31 10:43:59;;;;;;;18.58;3.78;;;8.30;99.90;;;;;;6302832;22;20046;-90
2023/01/31 10:46:25;;;;;;;16.80;3.72;;;8.40;99.90;;;;;;6305558;22;20018;-90
2023/01/31 10:48:50;;;;;;;14.80;3.38;;;8.50;99.90;;;;;;6304464;22;20015;-90
2023/01/31 10:51:36;;;;;;;16.33;3.00;;;8.50;99.90;;;;;;6304208;22;19995;-86
2023/01/31 10:54:18;;;;;;;12.70;2.90;;;8.50;99.90;;;;;;6303792;22;20003;-85
2023/01/31 10:56:46;;;;;;;14.57;3.13;;;8.50;99.90;;;;;;6302080;22;20335;-85
2023/01/31 10:59:18;;;;;;;13.57;3.60;;;8.60;99.90;;;;;;6303919;22;20003;-89
2023/01/31 11:01:43;;;;;;;21.23;3.55;;;8.50;99.90;;;;;;6303823;22;19995;-89
2023/01/31 11:04:26;;;;;;;17.05;3.80;;;8.60;99.90;;;;;;6304205;22;20328;-90
2023/01/31 11:06:53;;;;;;;16.48;3.00;;;8.70;99.90;;;;;;6302676;22;20339;-85
2023/01/31 11:09:21;;;;;;;13.98;2.80;;;8.80;99.90;;;;;;6303732;22;20448;-87
2023/01/31 11:11:57;;;;;;;;;;;9.00;99.90;;;;;;6302703;22;20078;-87
2023/01/31 11:14:23;;;;;;;16.77;3.03;;;9.00;99.90;;;;;;6302179;22;19918;-86
2023/01/31 11:16:56;;;;;;;13.55;3.35;;;9.00;99.90;;;;;;6302513;22;20087;-88
2023/01/31 11:19:44;;;;;;;14.82;3.50;;;9.00;99.90;;;;;;6304553;22;20355;-89
2023/01/31 11:22:20;;;;;;;;;;;9.00;99.90;;;;;;6289880;22;20078;-85
2023/01/31 11:24:48;;;;;;;15.55;2.97;;;9.10;99.90;;;;;;6303692;22;19905;-85
2023/01/31 11:27:24;;;;;;;16.57;3.33;;;9.10;99.90;;;;;;6303784;22;20011;-86
2023/01/31 11:29:53;;;;;;;11.13;2.90;;;9.20;99.90;;;;;;6306853;22;20250;-86
2023/01/31 11:32:22;;;;;;;16.73;3.28;;;9.20;99.90;;;;;;6306389;22;20003;-86
2023/01/31 11:34:55;;;;;;;14.00;2.90;;;9.20;99.90;;;;;;6301939;22;20082;-88
2023/01/31 11:37:21;;;;;;;16.83;2.92;;;9.30;99.90;;;;;;6301978;22;20066;-89
2023/01/31 11:39:58;;;;;;;16.90;3.42;;;9.30;99.90;;;;;;6303393;22;20037;-88
2023/01/31 11:42:24;;;;;;;12.18;3.60;;;9.40;99.90;;;;;;6303828;22;20010;-90
2023/01/31 11:45:17;;;;;;;15.43;3.20;;;9.30;99.90;;;;;;6303506;22;20444;-88
2023/01/31 11:47:48;;;;;;;13.00;3.17;;;9.30;99.90;;;;;;6294097;22;20011;-88
2023/01/31 11:50:39;;;;;;;16.35;2.70;;;9.40;99.90;;;;;;6303206;22;20006;-85
2023/01/31 11:53:14;;;;;;;18.10;3.50;;;9.40;99.90;;;;;;6301308;22;20090;-85
2023/01/31 11:55:41;;;;;;;11.98;2.97;;;9.40;99.90;;;;;;6303087;22;20070;-85
2023/01/31 11:58:32;;;;;;;15.57;3.08;;;9.40;99.90;;;;;;6303231;22;20011;-85
2023/01/31 12:01:04;;;;;;;15.15;3.20;;;9.40;99.90;;;;;;6290342;22;20394;-85
2023/01/31 12:03:30;;;;;;;13.52;2.97;;;9.40;99.90;;;;;;6302644;22;20448;-88
2023/01/31 12:06:06;;;;;;;12.50;3.65;;;9.40;99.90;;;;;;6302005;22;20003;-90
2023/01/31 12:08:38;;;;;;;13.38;3.33;;;9.40;99.90;;;;;;6304214;22;20022;-85
2023/01/31 12:11:34;;;;;;;15.88;3.42;;;9.30;99.90;;;;;;6303885;22;20078;-85
2023/01/31 12:14:20;;;;;;;13.13;3.20;;;9.30;99.90;;;;;;6294191;22;20511;-85
2023/01/31 12:16:48;;;;;;;13.63;3.75;;;9.40;99.90;;;;;;6301023;22;19999;-85
2023/01/31 12:19:14;;;;;;;15.60;3.85;;;9.40;99.90;;;;;;6303091;22;20070;-85
2023/01/31 12:22:07;;;;;;;19.02;3.78;;;9.40;99.90;;;;;;6301851;22;20046;-85
2023/01/31 12:24:45;;;;;;;12.82;3.20;;;9.40;99.90;;;;;;6304329;22;20004;-85
2023/01/31 12:27:16;;;;;;;18.73;3.90;;;9.40;99.90;;;;;;6302956;22;20424;-85
2023/01/31 12:30:16;;;;;;;13.23;3.08;;;9.40;99.90;;;;;;6302774;22;20234;-85
2023/01/31 12:32:50;;;;;;;11.15;3.15;;;9.40;99.90;;;;;;6303204;22;20003;-85
2023/01/31 12:35:28;;;;;;;14.88;3.25;;;9.50;99.90;;;;;;6301371;22;20018;-87
2023/01/31 12:38:00;;;;;;;12.43;3.45;;;9.40;99.90;;;;;;6300950;22;20000;-85
2023/01/31 12:40:37;;;;;;;13.07;3.40;;;9.40;99.90;;;;;;6302920;22;20317;-89
2023/01/31 12:43:27;;;;;;;14.30;3.37;;;9.40;99.90;;;;;;6302726;22;19999;-88
2023/01/31 12:46:16;;;;;;;15.55;3.17;;;9.50;99.90;;;;;;6300795;22;20057;-85
2023/01/31 12:48:45;;;;;;;14.55;3.00;;;9.50;99.90;;;;;;6302715;22;20011;-88
2023/01/31 12:51:35;;;;;;;11.65;3.03;;;9.50;99.90;;;;;;6301705;22;20059;-90
2023/01/31 12:54:43;;;;;;;10.45;3.00;;;9.60;99.90;;;;;;6301601;22;20007;-91
2023/01/31 12:57:35;;;;;;;11.23;3.05;;;9.60;99.90;;;;;;6285517;22;20093;-87
2023/01/31 13:00:20;;;;;;;13.93;3.20;;;9.70;99.90;;;;;;6301541;22;20009;-91
2023/01/31 13:03:30;;;;;;;11.35;3.13;;;9.70;99.90;;;;;;6302721;22;19999;-85
2023/01/31 13:06:05;;;;;;;20.23;3.78;;;9.70;99.90;;;;;;6302984;22;20006;-85
2023/01/31 13:08:33;;;;;;;13.13;3.20;;;9.70;99.90;;;;;;6302618;22;20015;-85
2023/01/31 13:11:10;;;;;;;11.18;2.90;;;9.70;99.90;;;;;;6302757;22;19995;-85